Fort Wayne, Indiana
Current Conditions -  °F | °C
As of 2:54 PM on Monday 26 Jan 2015 (Local Time) from KFWA Reporting Station
Broken Clouds Broken Clouds  
Wind Chill: 15°   Ceiling: 24000
Heat Index: 21°   Visibility: 10mi
Dew Point: 12°   Wind: 5mph
Humidity: 68%   Direction: 210°SSW
Pressure: 29.9"   Gusts: NA
Location:  41.08°N, 85.1°W
Report Text: KFWA 261954Z 21004KT 10SM FEW110 BKN240 M06/M11 A2990 RMK AO2 SLP136 T10611111
Loading
Personal Weather Stations






























Interactive Weather Map New forecast layout! Learn more

10-Day Weather Forecast

Advertisements
Track Severe Weather on mobile